Terminal Aerodrome Forecast
Issued by NWS

Home | Current Version | Previous Version | Text Only | Print | Product List | Glossary On
Versions: 1 2 3 4 5 6 7 8 9 10 11 12 13 14 15 16 17
000
FTUS44 KJAN 010520
TAFGTR
TAF
KGTR 010520Z 0106/0206 09004KT P6SM BKN250
     FM011100 12003KT 5SM BR HZ SCT250
     FM011400 06005KT P6SM FEW050 SCT150 BKN250=

USA.gov is the U.S. government's official web portal to all federal, state and local government web resources and services.